Aviation Digital Data Service (ADDS)

Output produced by METARs form (0145 UTC 26 April 2019)
found at http://www.aviationweather.gov/metar/data/
 
TAF LETO 252300Z 2600/2624 23010KT 9999 FEW025 SCT045 TX17/2615Z TN04/2606Z 
     PROB30 
     TEMPO 2600/2610 3000 BR BKN007 
     TEMPO 2605/2624 VRB05KT 
     TEMPO 2610/2613 12008KT
       
TAF LEZG 252300Z 2600/2624 26008KT 9999 FEW050 TX19/2614Z TN08/2606Z 
     PROB30 
     TEMPO 2600/2606 23015G28KT 
     BECMG 2607/2609 31010KT
       
TAF LERT 252300Z 2600/2609 35007KT CAVOK
       
TAF LELC 252300Z 2600/2624 31010KT 9999 FEW030 TX23/2613Z TN11/2606Z 
     TEMPO 2600/2606 VRB03KT 
     BECMG 2614/2616 20010KT
       
TAF LEAB 252300Z 2600/2609 24010KT 9999 FEW020 SCT035
       
TAF LEBZ 252300Z 2600/2624 24007KT CAVOK TX21/2615Z TN06/2606Z 
     PROB30 
     TEMPO 2602/2608 3000 BR
       
TAF LEMO 252300Z 2600/2609 34005KT CAVOK 
     PROB30 
     TEMPO 2602/2607 4000 BR
       
TAF LESA 252300Z 2600/2624 25011KT 9999 SCT020 BKN035 TX14/2615Z TN03/2606Z 
     BECMG 2607/2609 29011KT 
     PROB30 
     TEMPO 2600/2609 2000 BR BKN005 
     TEMPO 2619/2624 VRB04KT
       
TAF GCLP 252000Z 2521/2621 36018KT 9999 BKN030 TX23/2614Z TN16/2605Z 
     PROB30 
     TEMPO 2603/2609 RA 
     PROB40 
     TEMPO 2615/2619 02022G32KT
       
TAF LIED 252300Z 2600/2609 33010KT 39999 FEW030 SCT060
       
TAF LIPR 252300Z 2600/2609 VRB04KT 1500 BR BKN005 
     TEMPO 2600/2606 0600 FG 
     BECMG 2606/2608 6000 SCT020